Time;durP1;ratioP1;P1;durP2;ratioP2;P2;SDS_P1;SDS_P2;PMS_P1;PMS_P2;Temp;Humidity;BMP_temperature;BMP_pressure;BME280_temperature;BME280_humidity;BME280_pressure;Samples;Min_cycle;Max_cycle;Signal;HPM_P1;HPM_P2
2021/06/19 00:00:47;;;;;;;7.53;3.87;;;;;;;25.28;47.03;96517.13;5054937;28;20663;-67
2021/06/19 00:03:13;;;;;;;16.23;4.53;;;;;;;25.21;46.95;96501.31;5055705;28;20179;-67
2021/06/19 00:05:38;;;;;;;12.00;4.40;;;;;;;25.35;47.06;96498.13;5056009;28;20938;-67
2021/06/19 00:08:04;;;;;;;14.33;4.10;;;;;;;25.35;47.20;96501.63;5055979;28;20286;-68
2021/06/19 00:10:30;;;;;;;16.70;5.03;;;;;;;25.18;47.80;96515.25;5042333;28;20168;-67
2021/06/19 00:12:57;;;;;;;11.53;4.17;;;;;;;25.20;47.62;96541.78;5057156;28;20909;-67
2021/06/19 00:15:24;;;;;;;17.13;4.70;;;;;;;25.49;47.32;96581.59;5047381;28;20175;-67
2021/06/19 00:17:50;;;;;;;8.97;4.40;;;;;;;25.36;47.79;96633.81;5069562;28;20517;-67
2021/06/19 00:20:21;;;;;;;16.93;4.80;;;;;;;24.58;50.80;96611.91;5042890;28;20423;-67
2021/06/19 00:22:47;;;;;;;16.37;4.73;;;;;;;24.31;53.21;96611.97;5038813;28;20215;-67
2021/06/19 00:25:14;;;;;;;16.30;5.80;;;;;;;24.20;53.78;96606.53;5046850;28;20913;-68
2021/06/19 00:27:40;;;;;;;19.93;5.83;;;;;;;23.86;54.61;96621.97;5069000;28;20213;-68
2021/06/19 00:30:08;;;;;;;23.70;6.10;;;;;;;23.73;54.51;96615.94;5068651;28;20434;-67
2021/06/19 00:32:33;;;;;;;20.53;5.87;;;;;;;23.98;56.22;96589.75;5052947;28;20213;-67
2021/06/19 00:34:59;;;;;;;18.43;5.60;;;;;;;23.72;56.15;96590.25;5061840;28;20449;-67
2021/06/19 00:37:25;;;;;;;15.63;5.37;;;;;;;23.44;58.69;96584.06;5051338;28;20270;-66
2021/06/19 00:39:50;;;;;;;25.63;6.07;;;;;;;23.04;60.10;96569.16;5024675;28;20858;-65
2021/06/19 00:42:20;;;;;;;17.13;4.30;;;;;;;22.63;62.20;96568.59;5053282;28;20183;-66
2021/06/19 00:44:46;;;;;;;9.83;4.07;;;;;;;22.58;63.34;96547.16;5054105;28;20179;-67
2021/06/19 00:47:12;;;;;;;13.33;3.97;;;;;;;23.04;61.97;96546.97;5037543;28;20419;-67
2021/06/19 00:49:37;;;;;;;13.00;4.83;;;;;;;22.79;63.01;96562.44;5053692;28;20429;-67
2021/06/19 00:52:03;;;;;;;16.73;5.20;;;;;;;22.84;63.85;96554.47;5050442;28;20179;-68
2021/06/19 00:54:29;;;;;;;12.97;4.90;;;;;;;22.82;64.82;96559.25;5044997;28;20200;-68
2021/06/19 00:56:55;;;;;;;16.30;6.10;;;;;;;22.97;64.60;96552.50;5054003;28;20239;-67
2021/06/19 00:59:21;;;;;;;17.50;5.70;;;;;;;22.67;65.93;96548.38;5035535;28;20194;-67
2021/06/19 01:01:46;;;;;;;20.40;5.50;;;;;;;22.91;66.00;96561.50;5051752;28;20418;-67
2021/06/19 01:04:12;;;;;;;13.47;5.50;;;;;;;23.21;64.90;96554.94;5036750;28;20189;-67
2021/06/19 01:06:38;;;;;;;18.97;5.17;;;;;;;23.41;64.01;96544.50;5053626;28;20731;-67
2021/06/19 01:09:06;;;;;;;13.60;5.87;;;;;;;23.45;63.84;96550.94;5039168;28;20204;-67
2021/06/19 01:11:32;;;;;;;19.43;6.37;;;;;;;23.44;63.34;96562.69;5052946;28;20183;-67
2021/06/19 01:13:59;;;;;;;17.20;5.80;;;;;;;23.44;63.26;96552.00;5051495;28;20414;-66
2021/06/19 01:16:24;;;;;;;15.50;5.50;;;;;;;23.69;62.83;96550.63;5053239;28;20461;-66
2021/06/19 01:18:50;;;;;;;12.37;5.60;;;;;;;23.44;63.51;96568.03;5036914;28;21021;-67
2021/06/19 01:21:20;;;;;;;12.07;5.47;;;;;;;23.34;64.99;96562.56;5049924;28;20263;-68
2021/06/19 01:23:46;;;;;;;14.80;6.50;;;;;;;23.16;66.50;96561.81;5053155;28;20709;-68
2021/06/19 01:26:19;;;;;;;14.37;5.90;;;;;;;23.52;64.79;96558.75;5051119;28;20484;-66
2021/06/19 01:28:46;;;;;;;17.67;6.13;;;;;;;23.65;63.96;96557.56;5040478;28;20470;-67
2021/06/19 01:31:12;;;;;;;13.47;6.07;;;;;;;23.42;63.69;96547.97;5045442;28;20516;-67
2021/06/19 01:33:39;;;;;;;13.60;6.43;;;;;;;23.72;64.03;96542.13;5038917;28;20414;-67
2021/06/19 01:36:06;;;;;;;13.90;4.90;;;;;;;23.97;62.19;96543.44;5051172;28;20488;-67
2021/06/19 01:38:32;;;;;;;15.97;6.03;;;;;;;23.89;62.54;96531.28;5046802;28;20470;-68
2021/06/19 01:40:58;;;;;;;21.20;5.97;;;;;;;24.04;62.18;96527.16;5045438;28;20932;-66
2021/06/19 01:43:24;;;;;;;17.10;5.70;;;;;;;23.77;62.61;96525.31;5051474;28;20421;-67
2021/06/19 01:45:49;;;;;;;19.57;6.40;;;;;;;23.48;64.62;96536.28;5052862;28;20179;-66
2021/06/19 01:48:15;;;;;;;19.47;7.20;;;;;;;23.56;64.24;96527.00;5036171;28;20199;-67
2021/06/19 01:50:41;;;;;;;11.37;5.80;;;;;;;23.77;63.41;96520.78;5051591;28;20208;-66
2021/06/19 01:53:06;;;;;;;20.17;5.73;;;;;;;23.80;63.39;96526.69;5052958;28;20705;-68
2021/06/19 01:55:32;;;;;;;11.67;5.47;;;;;;;23.91;63.59;96517.69;5052325;28;20175;-67
2021/06/19 01:57:59;;;;;;;16.20;6.60;;;;;;;24.06;63.21;96520.53;5052571;28;20199;-66
2021/06/19 02:00:29;;;;;;;14.73;6.50;;;;;;;23.68;65.27;96524.97;5051768;28;20211;-67
2021/06/19 02:02:55;;;;;;;19.13;6.87;;;;;;;23.39;66.89;96522.53;5052486;28;21000;-67
2021/06/19 02:05:22;;;;;;;18.63;7.77;;;;;;;23.28;67.79;96520.81;5051769;28;20428;-67
2021/06/19 02:08:02;;;;;;;14.57;7.20;;;;;;;23.37;66.74;96510.50;5052675;28;20453;-67
2021/06/19 02:10:30;;;;;;;17.80;6.97;;;;;;;23.65;65.81;96496.06;5036600;28;20908;-67
2021/06/19 02:12:57;;;;;;;15.27;6.93;;;;;;;23.82;65.05;96489.78;5051122;28;20417;-66
2021/06/19 02:15:23;;;;;;;12.60;6.63;;;;;;;23.95;64.67;96496.56;5051750;28;20421;-67
2021/06/19 02:17:49;;;;;;;13.83;7.10;;;;;;;24.04;64.49;96495.88;5051192;28;20438;-67
2021/06/19 02:20:20;;;;;;;11.40;7.33;;;;;;;24.04;65.23;96501.22;5051846;28;20509;-67
2021/06/19 02:22:46;;;;;;;13.67;7.03;;;;;;;23.86;65.49;96494.38;5049069;28;20300;-66
2021/06/19 02:25:14;;;;;;;19.43;7.63;;;;;;;23.98;65.24;96488.88;5051889;28;20434;-67
2021/06/19 02:27:48;;;;;;;20.23;6.87;;;;;;;23.73;67.41;96494.78;5052122;28;20199;-67
2021/06/19 02:30:14;;;;;;;17.83;7.73;;;;;;;23.63;67.86;96500.84;5034602;28;20439;-67
2021/06/19 02:32:40;;;;;;;13.83;7.33;;;;;;;23.52;67.35;96504.50;5052074;28;20450;-66
2021/06/19 02:35:06;;;;;;;19.87;8.10;;;;;;;23.29;68.98;96514.44;5049904;28;20753;-67
2021/06/19 02:37:32;;;;;;;22.10;9.20;;;;;;;23.23;68.92;96518.09;5051580;28;20775;-68
2021/06/19 02:39:57;;;;;;;21.30;7.67;;;;;;;23.30;68.49;96514.16;5038466;28;20429;-66
2021/06/19 02:42:23;;;;;;;16.93;6.60;;;;;;;23.22;67.34;96521.81;5051734;28;20190;-66
2021/06/19 02:44:49;;;;;;;14.80;6.70;;;;;;;23.21;66.22;96520.19;5051278;28;20298;-66
2021/06/19 02:47:14;;;;;;;14.10;7.00;;;;;;;23.23;66.00;96518.91;5040905;28;20194;-66
2021/06/19 02:49:40;;;;;;;12.07;6.30;;;;;;;23.28;65.16;96523.50;5051629;28;20263;-66
2021/06/19 02:52:07;;;;;;;20.80;6.80;;;;;;;23.47;64.73;96519.41;5051643;28;20618;-67
2021/06/19 02:54:34;;;;;;;17.10;7.30;;;;;;;23.27;65.21;96532.56;5050128;28;20183;-66
2021/06/19 02:56:59;;;;;;;20.50;7.77;;;;;;;23.32;65.05;96532.59;5050162;28;20450;-68
2021/06/19 02:59:25;;;;;;;15.30;6.73;;;;;;;23.55;64.52;96533.41;5038268;28;20529;-67
2021/06/19 03:01:50;;;;;;;16.83;7.77;;;;;;;23.44;64.56;96541.31;5047000;28;20205;-68
2021/06/19 03:04:16;;;;;;;18.03;7.43;;;;;;;23.12;65.96;96539.31;5051094;28;20202;-67
2021/06/19 03:06:42;;;;;;;17.90;7.00;;;;;;;23.23;65.49;96534.94;5039058;28;20180;-68
2021/06/19 03:09:09;;;;;;;13.77;7.50;;;;;;;22.62;67.79;96542.94;5033023;28;20246;-66
2021/06/19 03:11:35;;;;;;;13.03;8.10;;;;;;;22.99;67.15;96545.03;5050561;28;20441;-66
2021/06/19 03:14:00;;;;;;;23.80;7.53;;;;;;;22.73;68.07;96552.72;5049502;28;20422;-67
2021/06/19 03:16:26;;;;;;;15.17;7.13;;;;;;;22.77;67.87;96553.84;5047476;28;20211;-67
2021/06/19 03:18:52;;;;;;;18.40;8.00;;;;;;;22.85;67.29;96549.94;5051651;28;20230;-67
2021/06/19 03:21:17;;;;;;;13.17;7.10;;;;;;;23.04;67.06;96563.81;5048494;28;20215;-67
2021/06/19 03:23:43;;;;;;;17.80;7.57;;;;;;;22.98;67.01;96573.63;5049860;28;20513;-66
2021/06/19 03:26:08;;;;;;;23.37;7.33;;;;;;;22.94;67.76;96582.34;5029706;28;20190;-67
2021/06/19 03:28:34;;;;;;;18.43;7.47;;;;;;;23.01;67.19;96575.00;5050262;28;20207;-67
2021/06/19 03:31:00;;;;;;;24.33;7.73;;;;;;;23.17;66.94;96575.97;5050993;28;20614;-66
2021/06/19 03:33:25;;;;;;;18.00;8.93;;;;;;;23.06;67.15;96576.91;5051361;28;20174;-67
2021/06/19 03:35:51;;;;;;;18.50;8.30;;;;;;;22.90;67.65;96573.25;5050740;28;20207;-67
2021/06/19 03:38:17;;;;;;;22.30;8.10;;;;;;;23.05;67.02;96576.13;5049555;28;20217;-67
2021/06/19 03:40:42;;;;;;;22.70;8.47;;;;;;;22.84;67.90;96581.19;5050735;28;20689;-67
2021/06/19 03:43:08;;;;;;;15.00;8.03;;;;;;;22.72;68.23;96577.81;5048513;28;20218;-67
2021/06/19 03:45:35;;;;;;;22.50;7.87;;;;;;;22.58;69.25;96587.19;5050871;28;20252;-67
2021/06/19 03:48:03;;;;;;;21.57;8.80;;;;;;;22.69;68.78;96595.13;5051142;28;20213;-68
2021/06/19 03:50:29;;;;;;;21.57;8.33;;;;;;;22.57;69.45;96598.94;5052001;28;20515;-67
2021/06/19 03:52:56;;;;;;;16.23;8.90;;;;;;;22.64;69.38;96599.59;5054230;28;20428;-67
2021/06/19 03:55:23;;;;;;;19.47;8.77;;;;;;;22.77;69.07;96601.09;5049032;28;20422;-66
2021/06/19 03:57:48;;;;;;;20.83;8.83;;;;;;;22.53;69.31;96610.13;5051979;28;20461;-67
2021/06/19 04:00:16;;;;;;;21.37;8.80;;;;;;;22.46;70.22;96612.13;5050952;28;20418;-67
2021/06/19 04:02:43;;;;;;;19.80;8.93;;;;;;;23.08;68.44;96609.53;5050200;28;20179;-67
2021/06/19 04:05:11;;;;;;;15.67;8.77;;;;;;;23.40;66.93;96614.22;5052879;28;20425;-67
2021/06/19 04:07:37;;;;;;;19.90;8.50;;;;;;;23.04;68.49;96617.25;5054859;28;20445;-68
2021/06/19 04:10:05;;;;;;;15.40;8.73;;;;;;;23.01;68.67;96623.06;5050726;28;20490;-67
2021/06/19 04:12:30;;;;;;;15.47;8.50;;;;;;;23.13;68.17;96618.44;5050893;28;20425;-68
2021/06/19 04:14:56;;;;;;;29.13;10.97;;;;;;;23.40;67.08;96623.06;5050495;28;20413;-68
2021/06/19 04:17:21;;;;;;;18.60;8.17;;;;;;;23.37;67.46;96620.09;5050535;28;20264;-68
2021/06/19 04:19:47;;;;;;;12.77;8.80;;;;;;;23.52;66.79;96620.25;5050593;28;20179;-68
2021/06/19 04:22:14;;;;;;;21.30;9.00;;;;;;;23.51;66.32;96618.63;5046126;28;20187;-68
2021/06/19 04:24:39;;;;;;;17.93;8.53;;;;;;;23.61;65.68;96620.63;5047373;28;20186;-68
2021/06/19 04:27:10;;;;;;;15.93;8.63;;;;;;;23.86;64.96;96622.78;5043976;28;20520;-68
2021/06/19 04:29:37;;;;;;;16.30;8.13;;;;;;;23.94;64.53;96629.56;5050480;28;20715;-66
2021/06/19 04:32:03;;;;;;;15.73;8.80;;;;;;;24.06;64.24;96638.25;5050383;28;20444;-66
2021/06/19 04:34:29;;;;;;;22.80;10.37;;;;;;;24.01;64.64;96638.22;5046166;28;20509;-66
2021/06/19 04:36:55;;;;;;;44.23;17.20;;;;;;;24.07;64.22;96639.06;5046013;28;20467;-68
2021/06/19 04:39:20;;;;;;;26.40;12.90;;;;;;;24.19;63.86;96647.75;5053721;28;20233;-68
2021/06/19 04:41:55;;;;;;;23.53;10.43;;;;;;;24.24;63.74;96649.66;5053265;28;20646;-68
2021/06/19 04:44:28;;;;;;;21.47;8.77;;;;;;;24.39;62.99;96641.75;5053777;28;20232;-68
2021/06/19 04:46:54;;;;;;;21.60;8.80;;;;;;;24.37;62.78;96651.91;5053203;28;20426;-68
2021/06/19 04:49:19;;;;;;;14.03;8.30;;;;;;;24.41;63.16;96659.44;5052533;28;20449;-68
2021/06/19 04:51:45;;;;;;;15.20;8.60;;;;;;;24.09;64.49;96663.72;5054497;28;20205;-68
2021/06/19 04:54:12;;;;;;;11.90;8.00;;;;;;;24.19;63.91;96665.69;5053591;28;20696;-68
2021/06/19 04:56:40;;;;;;;17.63;9.50;;;;;;;24.30;63.87;96670.06;5044356;28;20540;-67
2021/06/19 04:59:05;;;;;;;13.50;8.60;;;;;;;24.23;63.71;96669.44;5053933;28;20443;-68
2021/06/19 05:01:31;;;;;;;20.17;9.20;;;;;;;24.33;63.38;96663.38;5053951;28;20475;-68
2021/06/19 05:03:57;;;;;;;21.63;8.40;;;;;;;24.37;63.63;96662.63;5056892;28;20182;-68
2021/06/19 05:06:22;;;;;;;18.67;8.67;;;;;;;24.36;63.11;96671.72;5061015;28;20171;-69
2021/06/19 05:08:48;;;;;;;22.70;9.10;;;;;;;24.46;63.32;96673.69;5062442;28;20688;-68
2021/06/19 05:11:13;;;;;;;20.17;9.37;;;;;;;24.41;63.34;96665.59;5057732;28;20245;-68
2021/06/19 05:13:39;;;;;;;13.67;8.60;;;;;;;24.67;62.82;96663.13;5060086;28;20674;-68
2021/06/19 05:16:04;;;;;;;19.10;8.43;;;;;;;24.84;62.50;96679.06;5056809;28;20205;-68
2021/06/19 05:18:30;;;;;;;12.37;8.60;;;;;;;25.04;62.11;96682.97;5057053;28;20734;-66
2021/06/19 05:20:56;;;;;;;18.00;8.63;;;;;;;24.65;63.05;96684.81;5052540;28;20175;-68
2021/06/19 05:23:21;;;;;;;21.40;8.50;;;;;;;25.09;62.00;96688.34;5052514;28;20175;-68
2021/06/19 05:25:47;;;;;;;17.77;8.50;;;;;;;25.34;61.20;96676.16;5043253;28;20277;-68
2021/06/19 05:28:13;;;;;;;15.73;8.47;;;;;;;25.71;60.40;96686.00;5053109;28;20721;-68
2021/06/19 05:30:39;;;;;;;16.80;8.93;;;;;;;25.76;60.12;96686.03;5052271;28;20210;-67
2021/06/19 05:33:06;;;;;;;16.37;8.80;;;;;;;25.74;60.28;96689.00;5053263;28;20313;-68
2021/06/19 05:35:31;;;;;;;16.73;8.27;;;;;;;25.84;59.00;96690.88;5045248;28;20698;-68
2021/06/19 05:37:57;;;;;;;15.50;8.83;;;;;;;26.20;57.80;96690.22;5052660;28;20438;-68
2021/06/19 05:40:23;;;;;;;16.20;7.67;;;;;;;26.51;55.89;96693.75;5052314;28;20193;-68
2021/06/19 05:42:48;;;;;;;14.13;7.20;;;;;;;26.77;55.25;96690.25;5053204;28;20179;-67
2021/06/19 05:45:14;;;;;;;16.93;8.07;;;;;;;27.02;54.72;96694.81;5052746;28;20534;-67
2021/06/19 05:47:40;;;;;;;12.63;7.50;;;;;;;27.10;53.75;96696.94;5052934;28;20222;-68
2021/06/19 05:50:07;;;;;;;11.50;6.80;;;;;;;27.12;51.92;96685.94;5053030;28;20528;-68
2021/06/19 05:52:32;;;;;;;20.37;8.40;;;;;;;27.13;51.45;96677.59;5053495;28;20167;-68
2021/06/19 05:54:59;;;;;;;27.13;7.73;;;;;;;27.11;52.03;96684.34;5051093;28;20425;-68
2021/06/19 05:57:24;;;;;;;18.83;7.80;;;;;;;27.39;50.97;96672.16;5034950;28;20210;-68
2021/06/19 05:59:50;;;;;;;17.23;7.77;;;;;;;27.06;50.91;96681.63;5052793;28;20417;-68
2021/06/19 06:02:16;;;;;;;15.40;7.27;;;;;;;27.37;50.87;96687.75;5050274;28;20179;-68
2021/06/19 06:04:42;;;;;;;19.40;7.73;;;;;;;27.40;50.48;96681.03;5043615;28;20175;-67
2021/06/19 06:07:08;;;;;;;14.00;7.20;;;;;;;27.49;50.23;96682.09;5046595;28;20611;-68
2021/06/19 06:09:33;;;;;;;15.40;6.70;;;;;;;27.29;50.61;96681.03;5045919;28;20433;-67
2021/06/19 06:11:59;;;;;;;10.60;6.17;;;;;;;27.44;49.87;96677.56;5052644;28;20171;-67
2021/06/19 06:14:25;;;;;;;12.63;6.47;;;;;;;27.49;49.58;96678.59;5033561;28;20641;-67
2021/06/19 06:16:50;;;;;;;17.03;8.40;;;;;;;27.81;49.23;96675.50;5052040;28;20293;-67
2021/06/19 06:19:19;;;;;;;9.53;6.60;;;;;;;27.93;49.23;96674.38;5052249;28;20703;-67
2021/06/19 06:21:45;;;;;;;21.70;7.20;;;;;;;27.88;49.21;96672.50;5048818;28;20309;-67
2021/06/19 06:24:11;;;;;;;18.20;6.27;;;;;;;27.84;48.55;96674.16;5051860;28;20437;-67
2021/06/19 06:26:37;;;;;;;8.57;5.87;;;;;;;28.20;47.83;96677.47;5051376;28;20782;-67
2021/06/19 06:29:03;;;;;;;8.83;6.37;;;;;;;28.44;47.17;96675.97;5052052;28;20552;-66
2021/06/19 06:31:28;;;;;;;17.33;6.87;;;;;;;28.30;47.95;96683.84;5051077;28;20417;-67
2021/06/19 06:33:54;;;;;;;11.37;5.83;;;;;;;28.23;47.42;96689.56;5050713;28;20175;-67
2021/06/19 06:36:20;;;;;;;14.67;5.77;;;;;;;28.75;46.56;96686.50;5044161;28;20260;-68
2021/06/19 06:38:45;;;;;;;19.83;5.77;;;;;;;28.62;48.13;96694.13;5050506;28;20206;-68
2021/06/19 06:41:11;;;;;;;12.60;5.10;;;;;;;28.53;46.02;96695.81;5050332;28;20193;-68
2021/06/19 06:43:37;;;;;;;10.40;5.90;;;;;;;28.09;47.95;96699.38;5051693;28;20178;-68
2021/06/19 06:46:02;;;;;;;10.43;5.43;;;;;;;27.42;48.36;96701.19;5051388;28;20175;-67
2021/06/19 06:48:29;;;;;;;11.50;4.50;;;;;;;28.12;46.64;96696.09;5051124;28;20246;-67
2021/06/19 06:50:56;;;;;;;7.23;4.50;;;;;;;27.93;47.25;96698.59;5049482;28;20317;-68
2021/06/19 06:53:22;;;;;;;8.60;4.90;;;;;;;28.31;46.08;96693.56;5051116;28;20422;-67
2021/06/19 06:55:47;;;;;;;13.10;5.00;;;;;;;28.41;45.72;96698.06;5052069;28;20426;-68
2021/06/19 06:58:13;;;;;;;9.33;5.57;;;;;;;28.12;46.52;96696.09;5051837;28;20248;-68
2021/06/19 07:00:39;;;;;;;6.90;4.90;;;;;;;28.10;47.12;96695.59;5049219;28;20176;-68
2021/06/19 07:03:04;;;;;;;11.43;4.90;;;;;;;28.98;44.98;96694.97;5025313;28;20180;-67
2021/06/19 07:05:30;;;;;;;8.50;5.07;;;;;;;28.88;45.96;96696.66;5040856;28;20172;-67
2021/06/19 07:07:56;;;;;;;13.63;5.40;;;;;;;29.47;44.94;96685.03;5043378;28;20226;-67
2021/06/19 07:10:21;;;;;;;10.80;5.57;;;;;;;29.50;44.02;96687.94;5050857;28;20182;-68
2021/06/19 07:12:47;;;;;;;12.83;4.87;;;;;;;29.35;44.45;96688.94;5041836;28;20229;-67
2021/06/19 07:15:14;;;;;;;6.57;4.80;;;;;;;29.75;43.61;96686.03;5050857;28;20183;-68
2021/06/19 07:17:41;;;;;;;19.50;6.40;;;;;;;29.07;44.35;96690.56;5051296;28;20230;-66
2021/06/19 07:20:08;;;;;;;10.77;6.00;;;;;;;29.09;44.69;96688.38;5051471;28;20422;-70
2021/06/19 07:22:34;;;;;;;16.07;5.00;;;;;;;29.47;43.77;96680.44;5047495;28;20480;-66
2021/06/19 07:25:01;;;;;;;8.17;5.17;;;;;;;29.64;43.89;96674.56;5032211;28;20504;-67
2021/06/19 07:27:26;;;;;;;17.77;5.37;;;;;;;30.15;42.55;96672.31;5055183;28;20440;-70
2021/06/19 07:29:52;;;;;;;11.17;4.80;;;;;;;30.05;42.40;96672.47;5064006;28;20505;-66
2021/06/19 07:32:17;;;;;;;15.70;4.87;;;;;;;30.49;42.08;96671.25;5055533;28;20185;-67
2021/06/19 07:34:43;;;;;;;9.40;4.70;;;;;;;29.85;43.24;96664.31;5050263;28;20175;-67
2021/06/19 07:37:09;;;;;;;13.50;5.50;;;;;;;30.38;41.76;96664.41;5054090;28;20237;-66
2021/06/19 07:39:34;;;;;;;11.73;4.87;;;;;;;30.74;41.25;96664.66;5046770;28;20195;-66
2021/06/19 07:42:00;;;;;;;13.50;4.97;;;;;;;30.98;40.45;96655.59;5064714;28;20206;-69
2021/06/19 07:44:25;;;;;;;6.77;4.60;;;;;;;30.90;40.21;96653.56;5061149;28;20243;-67
2021/06/19 07:46:51;;;;;;;14.73;5.40;;;;;;;30.82;40.75;96646.13;5053122;28;20167;-66
2021/06/19 07:49:19;;;;;;;18.83;6.33;;;;;;;30.90;40.79;96643.56;5051872;28;20298;-64
2021/06/19 07:51:44;;;;;;;14.00;5.63;;;;;;;31.08;40.45;96639.16;5051622;28;20179;-67
2021/06/19 07:54:10;;;;;;;12.40;5.03;;;;;;;31.59;39.32;96636.56;5051618;28;21203;-69
2021/06/19 07:56:36;;;;;;;8.70;5.53;;;;;;;31.60;39.68;96638.19;5051387;28;20205;-68
2021/06/19 07:59:02;;;;;;;6.00;4.87;;;;;;;31.79;39.53;96640.78;5050752;28;20552;-69
2021/06/19 08:01:28;;;;;;;10.37;5.23;;;;;;;32.10;38.53;96640.09;5048438;28;20190;-67
2021/06/19 08:03:53;;;;;;;15.83;5.90;;;;;;;31.63;39.37;96642.97;5049817;28;20737;-68
2021/06/19 08:06:19;;;;;;;8.23;5.90;;;;;;;31.54;38.94;96644.78;5042735;28;20452;-67
2021/06/19 08:08:45;;;;;;;7.83;5.27;;;;;;;31.94;38.12;96642.34;5035370;28;20589;-69
2021/06/19 08:11:10;;;;;;;9.77;5.60;;;;;;;32.24;38.60;96634.63;5051305;28;20187;-67
2021/06/19 08:13:36;;;;;;;13.60;5.37;;;;;;;31.53;39.65;96626.94;5044399;28;20278;-69
2021/06/19 08:16:04;;;;;;;17.60;6.00;;;;;;;32.24;38.26;96629.22;5053991;28;20545;-67
2021/06/19 08:18:30;;;;;;;13.10;4.90;;;;;;;32.04;38.31;96629.66;5047075;28;20206;-70
2021/06/19 08:20:56;;;;;;;10.97;5.80;;;;;;;32.09;38.33;96627.63;5051019;28;20558;-67
2021/06/19 08:23:22;;;;;;;14.97;6.47;;;;;;;31.67;38.64;96629.66;5052462;28;20421;-67
2021/06/19 08:25:47;;;;;;;16.30;5.07;;;;;;;32.15;37.75;96631.84;5053182;28;20175;-68
2021/06/19 08:28:13;;;;;;;15.83;4.80;;;;;;;31.71;38.59;96634.19;5052592;28;20779;-68
2021/06/19 08:30:39;;;;;;;9.57;5.20;;;;;;;32.54;37.38;96635.00;5054615;28;20266;-68
2021/06/19 08:33:05;;;;;;;15.97;5.00;;;;;;;32.43;37.31;96634.47;5053936;28;20181;-67
2021/06/19 08:35:30;;;;;;;13.53;6.00;;;;;;;32.78;37.10;96631.16;5044743;28;20179;-69
2021/06/19 08:37:56;;;;;;;14.03;6.20;;;;;;;33.30;35.89;96624.38;5053897;28;20207;-68
2021/06/19 08:40:22;;;;;;;22.73;6.70;;;;;;;33.25;36.13;96628.03;5045111;28;20374;-67
2021/06/19 08:42:47;;;;;;;10.03;5.50;;;;;;;33.63;35.77;96626.72;5052763;28;20183;-68
2021/06/19 08:45:13;;;;;;;7.40;5.10;;;;;;;34.05;34.79;96613.50;5052442;28;20183;-69
2021/06/19 08:47:39;;;;;;;14.03;5.30;;;;;;;33.26;36.79;96615.28;5054356;28;20237;-70
2021/06/19 08:50:13;;;;;;;17.53;5.27;;;;;;;33.52;35.77;96618.84;5053978;28;20196;-68
2021/06/19 08:52:40;;;;;;;20.53;6.23;;;;;;;33.03;36.80;96618.03;5045800;28;20425;-68
2021/06/19 08:55:09;;;;;;;12.00;5.37;;;;;;;33.73;35.40;96614.75;5053518;28;20862;-68
2021/06/19 08:57:35;;;;;;;12.73;6.00;;;;;;;34.05;34.94;96618.94;5052766;28;20461;-67
2021/06/19 09:00:01;;;;;;;14.47;6.10;;;;;;;34.11;35.22;96625.00;5053913;28;20421;-68
2021/06/19 09:02:27;;;;;;;13.80;5.77;;;;;;;34.02;35.45;96619.59;5052881;28;20445;-71
2021/06/19 09:04:56;;;;;;;16.87;6.23;;;;;;;34.19;35.00;96615.25;5028750;28;20526;-68
2021/06/19 09:07:44;;;;;;;8.67;5.90;;;;;;;33.69;36.24;96618.13;5052406;28;20475;-68
2021/06/19 09:10:32;;;;;;;13.27;5.60;;;;;;;33.93;35.62;96611.44;5054280;28;20421;-67
2021/06/19 09:13:03;;;;;;;16.00;5.80;;;;;;;33.49;36.65;96619.50;5049058;28;20920;-68
2021/06/19 09:15:42;;;;;;;9.70;6.10;;;;;;;33.54;35.85;96630.22;5029880;28;20873;-68
2021/06/19 09:18:27;;;;;;;14.67;6.17;;;;;;;33.93;36.35;96613.34;5052837;28;20457;-69
2021/06/19 09:20:54;;;;;;;14.63;5.80;;;;;;;33.95;35.03;96620.09;5050291;28;20426;-69
2021/06/19 09:23:36;;;;;;;12.13;5.77;;;;;;;33.72;35.82;96622.09;5050589;28;20430;-68
2021/06/19 09:26:11;;;;;;;17.63;5.90;;;;;;;33.89;34.93;96629.50;5053276;28;20421;-68
2021/06/19 09:29:09;;;;;;;13.10;6.00;;;;;;;33.88;35.62;96625.19;5052841;28;20498;-68
2021/06/19 09:31:45;;;;;;;12.03;5.67;;;;;;;34.34;34.01;96614.78;5039572;28;20410;-68
2021/06/19 09:34:19;;;;;;;15.90;8.50;;;;;;;34.38;34.14;96612.19;5053026;28;20512;-67
2021/06/19 09:36:50;;;;;;;14.00;6.30;;;;;;;34.40;34.08;96610.81;5045231;28;20493;-67
2021/06/19 09:39:18;;;;;;;17.37;5.50;;;;;;;33.88;35.05;96608.09;5025349;28;20472;-68
2021/06/19 09:42:05;;;;;;;24.67;6.13;;;;;;;33.49;36.43;96610.56;5052585;28;20574;-68
2021/06/19 09:44:33;;;;;;;14.13;5.80;;;;;;;33.61;35.48;96594.44;5051205;28;20418;-68
2021/06/19 09:46:59;;;;;;;21.40;6.23;;;;;;;33.33;36.27;96597.38;5053190;28;20939;-68
2021/06/19 09:49:42;;;;;;;15.10;5.80;;;;;;;33.92;35.19;96584.56;5037117;28;20560;-67
2021/06/19 09:52:09;;;;;;;13.40;6.47;;;;;;;34.56;34.03;96591.25;5052635;28;20258;-69
2021/06/19 09:54:43;;;;;;;11.27;5.53;;;;;;;34.74;33.86;96583.81;5052531;28;20449;-68
2021/06/19 09:57:13;;;;;;;10.80;5.97;;;;;;;34.35;35.07;96581.03;5052636;28;20527;-67
2021/06/19 09:59:39;;;;;;;16.53;5.70;;;;;;;34.48;34.63;96581.19;5045481;28;20418;-70
2021/06/19 10:02:24;;;;;;;16.93;5.50;;;;;;;34.48;33.94;96581.19;5050318;28;20452;-67
2021/06/19 10:04:56;;;;;;;17.70;6.67;;;;;;;34.68;33.78;96583.19;5047118;28;20425;-68
2021/06/19 10:07:23;;;;;;;14.73;5.23;;;;;;;35.01;32.33;96569.03;5050644;28;20511;-68
2021/06/19 10:09:50;;;;;;;15.60;5.20;;;;;;;35.15;31.82;96568.00;5045581;28;20913;-68
2021/06/19 10:12:33;;;;;;;14.07;7.17;;;;;;;35.10;33.38;96558.06;5050379;28;20425;-67
2021/06/19 10:15:00;;;;;;;13.23;5.83;;;;;;;35.01;33.86;96558.16;5052134;28;20428;-68
2021/06/19 10:17:31;;;;;;;15.83;5.50;;;;;;;34.70;33.94;96561.91;5051129;28;20461;-68
2021/06/19 10:20:01;;;;;;;15.30;6.47;;;;;;;34.93;33.93;96556.25;5051113;28;20436;-68
2021/06/19 10:22:28;;;;;;;17.77;6.13;;;;;;;35.23;33.50;96539.94;5049377;28;21158;-68
2021/06/19 10:24:55;;;;;;;16.00;5.43;;;;;;;35.13;32.96;96537.59;5052071;28;20517;-68
2021/06/19 10:27:22;;;;;;;19.67;4.83;;;;;;;34.88;32.44;96538.16;5052489;28;20417;-69
2021/06/19 10:29:50;;;;;;;10.50;4.93;;;;;;;35.06;32.01;96532.66;5035029;28;20417;-68
2021/06/19 10:32:36;;;;;;;10.40;5.70;;;;;;;34.94;33.09;96533.34;5052279;28;20433;-69
2021/06/19 10:35:03;;;;;;;13.90;5.90;;;;;;;34.57;34.11;96522.94;5042345;28;20427;-68
2021/06/19 10:37:30;;;;;;;15.63;5.90;;;;;;;34.60;33.62;96533.16;5050761;28;20457;-68
2021/06/19 10:39:57;;;;;;;16.70;5.60;;;;;;;34.53;33.30;96526.63;5051129;28;20444;-68
2021/06/19 10:42:29;;;;;;;11.57;5.37;;;;;;;34.49;33.52;96506.66;5053003;28;20418;-69
2021/06/19 10:45:05;;;;;;;12.57;5.47;;;;;;;35.09;31.87;96507.53;5051917;28;20418;-66
2021/06/19 10:47:58;;;;;;;17.80;5.30;;;;;;;35.63;30.78;96498.66;5020411;28;20468;-68
2021/06/19 10:50:25;;;;;;;11.43;4.70;;;;;;;35.64;29.60;96497.53;5040687;28;20433;-68
2021/06/19 10:53:02;;;;;;;17.27;5.80;;;;;;;35.31;31.39;96489.28;5052405;28;20417;-69
2021/06/19 10:55:28;;;;;;;13.90;5.33;;;;;;;35.24;31.33;96489.78;5052155;28;20463;-69
2021/06/19 10:57:56;;;;;;;13.97;4.63;;;;;;;35.62;31.66;96483.44;5049423;28;21163;-69
2021/06/19 11:00:36;;;;;;;19.60;6.27;;;;;;;35.79;31.79;96482.50;5052477;28;20421;-68
2021/06/19 11:03:06;;;;;;;13.60;5.13;;;;;;;35.77;29.38;96489.41;5052105;28;20520;-69
2021/06/19 11:05:44;;;;;;;10.77;5.40;;;;;;;35.61;31.15;96490.03;5048593;28;20420;-68
2021/06/19 11:08:16;;;;;;;13.13;5.47;;;;;;;35.60;31.31;96480.25;5052323;28;20476;-68
2021/06/19 11:10:45;;;;;;;12.77;4.90;;;;;;;35.82;29.41;96483.72;5051636;28;20436;-67
2021/06/19 11:13:33;;;;;;;24.23;5.07;;;;;;;35.71;29.52;96488.00;5041706;28;20430;-68
2021/06/19 11:16:05;;;;;;;17.83;4.60;;;;;;;35.86;27.92;96481.94;5051749;28;20484;-71
2021/06/19 11:18:49;;;;;;;12.00;4.70;;;;;;;36.26;26.64;96475.13;5041249;28;20456;-69
2021/06/19 11:21:17;;;;;;;16.23;4.40;;;;;;;36.32;27.14;96481.16;5039740;28;20424;-71
2021/06/19 11:24:01;;;;;;;25.27;6.17;;;;;;;36.45;27.18;96471.88;5051239;28;20817;-68
2021/06/19 11:27:00;;;;;;;19.00;4.97;;;;;;;36.51;27.61;96465.09;5036214;28;20409;-68
2021/06/19 11:29:35;;;;;;;10.73;4.20;;;;;;;35.75;28.39;96457.03;5051918;28;20782;-66